sensor_id;sensor_type;location;lat;lon;timestamp;P1;durP1;ratioP1;P2;durP2;ratioP2
2408;SDS011;8463;48.094;7.970;2023-01-19T00:00:03;14.87;;;6.87;;
2408;SDS011;8463;48.094;7.970;2023-01-19T00:02:30;6.87;;;5.77;;
2408;SDS011;8463;48.094;7.970;2023-01-19T00:04:56;10.63;;;7.10;;
2408;SDS011;8463;48.094;7.970;2023-01-19T00:10:46;12.10;;;5.80;;
2408;SDS011;8463;48.094;7.970;2023-01-19T00:13:15;6.03;;;5.40;;
2408;SDS011;8463;48.094;7.970;2023-01-19T00:15:40;7.60;;;5.37;;
2408;SDS011;8463;48.094;7.970;2023-01-19T00:18:06;5.10;;;4.60;;
2408;SDS011;8463;48.094;7.970;2023-01-19T00:20:31;8.60;;;6.17;;
2408;SDS011;8463;48.094;7.970;2023-01-19T00:22:59;8.07;;;6.10;;
2408;SDS011;8463;48.094;7.970;2023-01-19T00:25:25;8.50;;;6.03;;
2408;SDS011;8463;48.094;7.970;2023-01-19T00:27:51;9.20;;;6.40;;
2408;SDS011;8463;48.094;7.970;2023-01-19T00:30:16;8.10;;;6.27;;
2408;SDS011;8463;48.094;7.970;2023-01-19T00:32:42;9.43;;;6.20;;
2408;SDS011;8463;48.094;7.970;2023-01-19T00:35:08;6.13;;;5.53;;
2408;SDS011;8463;48.094;7.970;2023-01-19T00:37:33;6.67;;;4.77;;
2408;SDS011;8463;48.094;7.970;2023-01-19T00:40:01;7.40;;;5.57;;
2408;SDS011;8463;48.094;7.970;2023-01-19T00:42:30;11.00;;;6.93;;
2408;SDS011;8463;48.094;7.970;2023-01-19T00:45:05;6.60;;;6.03;;
2408;SDS011;8463;48.094;7.970;2023-01-19T00:47:42;12.70;;;6.17;;
2408;SDS011;8463;48.094;7.970;2023-01-19T00:50:09;7.97;;;6.15;;
2408;SDS011;8463;48.094;7.970;2023-01-19T00:52:37;10.20;;;5.70;;
2408;SDS011;8463;48.094;7.970;2023-01-19T00:55:03;7.70;;;6.13;;
2408;SDS011;8463;48.094;7.970;2023-01-19T00:57:30;9.40;;;6.47;;
2408;SDS011;8463;48.094;7.970;2023-01-19T00:59:55;6.37;;;5.50;;
2408;SDS011;8463;48.094;7.970;2023-01-19T01:02:21;7.27;;;5.23;;
2408;SDS011;8463;48.094;7.970;2023-01-19T01:04:46;7.50;;;4.77;;
2408;SDS011;8463;48.094;7.970;2023-01-19T01:07:12;9.80;;;6.10;;
2408;SDS011;8463;48.094;7.970;2023-01-19T01:09:38;4.93;;;4.40;;
2408;SDS011;8463;48.094;7.970;2023-01-19T01:12:03;6.03;;;4.73;;
2408;SDS011;8463;48.094;7.970;2023-01-19T01:14:29;7.23;;;4.77;;
2408;SDS011;8463;48.094;7.970;2023-01-19T01:16:55;11.57;;;5.03;;
2408;SDS011;8463;48.094;7.970;2023-01-19T01:19:21;7.10;;;5.50;;
2408;SDS011;8463;48.094;7.970;2023-01-19T01:21:48;5.87;;;4.77;;
2408;SDS011;8463;48.094;7.970;2023-01-19T01:24:15;6.20;;;5.03;;
2408;SDS011;8463;48.094;7.970;2023-01-19T01:26:40;11.80;;;5.63;;
2408;SDS011;8463;48.094;7.970;2023-01-19T01:29:06;9.27;;;5.07;;
2408;SDS011;8463;48.094;7.970;2023-01-19T01:31:32;7.70;;;5.87;;
2408;SDS011;8463;48.094;7.970;2023-01-19T01:34:00;8.47;;;6.20;;
2408;SDS011;8463;48.094;7.970;2023-01-19T01:36:25;8.60;;;5.70;;
2408;SDS011;8463;48.094;7.970;2023-01-19T01:38:55;8.37;;;4.93;;
2408;SDS011;8463;48.094;7.970;2023-01-19T01:41:21;9.50;;;6.20;;
2408;SDS011;8463;48.094;7.970;2023-01-19T01:43:48;7.77;;;5.60;;
2408;SDS011;8463;48.094;7.970;2023-01-19T01:46:18;10.13;;;7.00;;
2408;SDS011;8463;48.094;7.970;2023-01-19T01:48:45;6.03;;;4.87;;
2408;SDS011;8463;48.094;7.970;2023-01-19T01:51:27;7.70;;;5.77;;
2408;SDS011;8463;48.094;7.970;2023-01-19T01:56:58;7.57;;;5.73;;
2408;SDS011;8463;48.094;7.970;2023-01-19T01:59:29;9.93;;;5.23;;
2408;SDS011;8463;48.094;7.970;2023-01-19T02:02:22;6.73;;;6.07;;
2408;SDS011;8463;48.094;7.970;2023-01-19T02:05:15;9.13;;;6.33;;
2408;SDS011;8463;48.094;7.970;2023-01-19T02:11:13;7.47;;;5.90;;
2408;SDS011;8463;48.094;7.970;2023-01-19T02:13:58;9.80;;;6.20;;
2408;SDS011;8463;48.094;7.970;2023-01-19T02:16:26;8.50;;;6.20;;
2408;SDS011;8463;48.094;7.970;2023-01-19T02:18:53;10.27;;;6.70;;
2408;SDS011;8463;48.094;7.970;2023-01-19T02:21:28;9.80;;;6.43;;
2408;SDS011;8463;48.094;7.970;2023-01-19T02:24:07;9.10;;;6.30;;
2408;SDS011;8463;48.094;7.970;2023-01-19T02:26:34;5.93;;;5.10;;
2408;SDS011;8463;48.094;7.970;2023-01-19T02:29:04;8.20;;;6.20;;
2408;SDS011;8463;48.094;7.970;2023-01-19T02:31:34;7.60;;;6.33;;
2408;SDS011;8463;48.094;7.970;2023-01-19T02:34:02;9.83;;;6.10;;
2408;SDS011;8463;48.094;7.970;2023-01-19T02:36:39;9.77;;;5.83;;
2408;SDS011;8463;48.094;7.970;2023-01-19T02:39:12;7.17;;;6.33;;
2408;SDS011;8463;48.094;7.970;2023-01-19T02:41:41;9.00;;;5.90;;
2408;SDS011;8463;48.094;7.970;2023-01-19T02:44:13;7.77;;;5.47;;
2408;SDS011;8463;48.094;7.970;2023-01-19T02:46:40;9.10;;;6.17;;
2408;SDS011;8463;48.094;7.970;2023-01-19T02:49:06;7.17;;;5.00;;
2408;SDS011;8463;48.094;7.970;2023-01-19T02:51:32;7.53;;;6.33;;
2408;SDS011;8463;48.094;7.970;2023-01-19T02:54:04;8.80;;;6.93;;
2408;SDS011;8463;48.094;7.970;2023-01-19T02:56:44;8.27;;;5.87;;
2408;SDS011;8463;48.094;7.970;2023-01-19T03:02:33;9.77;;;5.70;;
2408;SDS011;8463;48.094;7.970;2023-01-19T03:05:18;8.77;;;6.27;;
2408;SDS011;8463;48.094;7.970;2023-01-19T03:13:41;6.32;;;4.95;;
2408;SDS011;8463;48.094;7.970;2023-01-19T03:16:24;9.13;;;5.17;;
2408;SDS011;8463;48.094;7.970;2023-01-19T03:18:48;7.43;;;4.67;;
2408;SDS011;8463;48.094;7.970;2023-01-19T03:21:18;8.93;;;5.97;;
2408;SDS011;8463;48.094;7.970;2023-01-19T03:23:47;8.67;;;5.80;;
2408;SDS011;8463;48.094;7.970;2023-01-19T03:26:17;9.13;;;5.33;;
2408;SDS011;8463;48.094;7.970;2023-01-19T03:28:48;6.23;;;5.47;;
2408;SDS011;8463;48.094;7.970;2023-01-19T03:31:17;6.13;;;4.53;;
2408;SDS011;8463;48.094;7.970;2023-01-19T03:33:46;5.60;;;4.27;;
2408;SDS011;8463;48.094;7.970;2023-01-19T03:36:29;8.07;;;5.47;;
2408;SDS011;8463;48.094;7.970;2023-01-19T03:38:55;6.30;;;4.70;;
2408;SDS011;8463;48.094;7.970;2023-01-19T03:41:23;6.30;;;4.40;;
2408;SDS011;8463;48.094;7.970;2023-01-19T03:43:51;4.73;;;4.17;;
2408;SDS011;8463;48.094;7.970;2023-01-19T03:46:19;8.40;;;4.67;;
2408;SDS011;8463;48.094;7.970;2023-01-19T03:48:46;5.73;;;4.77;;
2408;SDS011;8463;48.094;7.970;2023-01-19T03:51:12;7.20;;;6.47;;
2408;SDS011;8463;48.094;7.970;2023-01-19T03:53:39;6.80;;;5.03;;
2408;SDS011;8463;48.094;7.970;2023-01-19T03:56:05;5.37;;;4.47;;
2408;SDS011;8463;48.094;7.970;2023-01-19T03:58:41;6.40;;;3.70;;
2408;SDS011;8463;48.094;7.970;2023-01-19T04:01:07;4.53;;;4.10;;
2408;SDS011;8463;48.094;7.970;2023-01-19T04:03:32;5.85;;;4.50;;
2408;SDS011;8463;48.094;7.970;2023-01-19T04:05:58;6.17;;;5.00;;
2408;SDS011;8463;48.094;7.970;2023-01-19T04:08:23;7.53;;;4.77;;
2408;SDS011;8463;48.094;7.970;2023-01-19T04:10:52;6.60;;;4.70;;
2408;SDS011;8463;48.094;7.970;2023-01-19T04:13:17;5.23;;;4.30;;
2408;SDS011;8463;48.094;7.970;2023-01-19T04:15:43;4.10;;;3.30;;
2408;SDS011;8463;48.094;7.970;2023-01-19T04:18:11;5.83;;;3.90;;
2408;SDS011;8463;48.094;7.970;2023-01-19T04:20:36;4.37;;;3.47;;
2408;SDS011;8463;48.094;7.970;2023-01-19T04:23:02;6.17;;;4.10;;
2408;SDS011;8463;48.094;7.970;2023-01-19T04:25:29;5.30;;;4.70;;
2408;SDS011;8463;48.094;7.970;2023-01-19T04:27:55;5.50;;;3.73;;
2408;SDS011;8463;48.094;7.970;2023-01-19T04:30:22;4.90;;;3.83;;
2408;SDS011;8463;48.094;7.970;2023-01-19T04:32:48;4.97;;;3.88;;
2408;SDS011;8463;48.094;7.970;2023-01-19T04:35:14;4.37;;;3.53;;
2408;SDS011;8463;48.094;7.970;2023-01-19T04:37:40;5.17;;;3.43;;
2408;SDS011;8463;48.094;7.970;2023-01-19T04:40:06;4.53;;;3.90;;
2408;SDS011;8463;48.094;7.970;2023-01-19T04:42:32;5.25;;;3.95;;
2408;SDS011;8463;48.094;7.970;2023-01-19T04:45:00;6.07;;;3.80;;
2408;SDS011;8463;48.094;7.970;2023-01-19T04:47:26;6.00;;;3.87;;
2408;SDS011;8463;48.094;7.970;2023-01-19T04:49:54;4.73;;;3.20;;
2408;SDS011;8463;48.094;7.970;2023-01-19T04:52:20;4.50;;;3.90;;
2408;SDS011;8463;48.094;7.970;2023-01-19T04:54:46;4.17;;;3.40;;
2408;SDS011;8463;48.094;7.970;2023-01-19T04:57:11;4.40;;;3.57;;
2408;SDS011;8463;48.094;7.970;2023-01-19T04:59:37;3.50;;;3.17;;
2408;SDS011;8463;48.094;7.970;2023-01-19T05:02:02;3.00;;;2.80;;
2408;SDS011;8463;48.094;7.970;2023-01-19T05:04:28;3.23;;;2.90;;
2408;SDS011;8463;48.094;7.970;2023-01-19T05:06:56;2.50;;;2.30;;
2408;SDS011;8463;48.094;7.970;2023-01-19T05:09:22;3.60;;;3.30;;
2408;SDS011;8463;48.094;7.970;2023-01-19T05:11:47;5.60;;;3.60;;
2408;SDS011;8463;48.094;7.970;2023-01-19T05:14:13;4.80;;;2.80;;
2408;SDS011;8463;48.094;7.970;2023-01-19T05:16:41;6.23;;;3.70;;
2408;SDS011;8463;48.094;7.970;2023-01-19T05:19:06;4.63;;;2.77;;
2408;SDS011;8463;48.094;7.970;2023-01-19T05:21:32;2.83;;;2.50;;
2408;SDS011;8463;48.094;7.970;2023-01-19T05:23:58;5.00;;;2.80;;
2408;SDS011;8463;48.094;7.970;2023-01-19T05:26:23;4.77;;;2.97;;
2408;SDS011;8463;48.094;7.970;2023-01-19T05:28:49;128.90;;;35.50;;
2408;SDS011;8463;48.094;7.970;2023-01-19T05:31:14;166.17;;;42.27;;
2408;SDS011;8463;48.094;7.970;2023-01-19T05:33:40;51.43;;;18.93;;
2408;SDS011;8463;48.094;7.970;2023-01-19T05:36:06;10.03;;;5.83;;
2408;SDS011;8463;48.094;7.970;2023-01-19T05:38:32;5.30;;;4.53;;
2408;SDS011;8463;48.094;7.970;2023-01-19T05:40:57;5.40;;;3.87;;
2408;SDS011;8463;48.094;7.970;2023-01-19T05:43:23;5.20;;;3.63;;
2408;SDS011;8463;48.094;7.970;2023-01-19T05:45:52;4.57;;;3.50;;
2408;SDS011;8463;48.094;7.970;2023-01-19T05:48:17;7.27;;;4.23;;
2408;SDS011;8463;48.094;7.970;2023-01-19T05:50:43;6.20;;;5.17;;
2408;SDS011;8463;48.094;7.970;2023-01-19T05:53:09;4.97;;;4.17;;
2408;SDS011;8463;48.094;7.970;2023-01-19T05:55:34;6.50;;;4.47;;
2408;SDS011;8463;48.094;7.970;2023-01-19T05:58:00;11.90;;;7.00;;
2408;SDS011;8463;48.094;7.970;2023-01-19T06:00:28;12.70;;;7.45;;
2408;SDS011;8463;48.094;7.970;2023-01-19T06:02:53;11.60;;;8.93;;
2408;SDS011;8463;48.094;7.970;2023-01-19T06:05:19;15.67;;;8.13;;
2408;SDS011;8463;48.094;7.970;2023-01-19T06:07:45;8.47;;;5.97;;
2408;SDS011;8463;48.094;7.970;2023-01-19T06:10:11;9.77;;;6.13;;
2408;SDS011;8463;48.094;7.970;2023-01-19T06:12:40;9.80;;;5.50;;
2408;SDS011;8463;48.094;7.970;2023-01-19T06:15:06;5.20;;;4.70;;
2408;SDS011;8463;48.094;7.970;2023-01-19T06:17:32;8.45;;;5.50;;
2408;SDS011;8463;48.094;7.970;2023-01-19T06:20:00;6.57;;;3.87;;
2408;SDS011;8463;48.094;7.970;2023-01-19T06:22:27;4.33;;;3.47;;
2408;SDS011;8463;48.094;7.970;2023-01-19T06:24:52;5.93;;;3.73;;
2408;SDS011;8463;48.094;7.970;2023-01-19T06:27:18;7.60;;;4.03;;
2408;SDS011;8463;48.094;7.970;2023-01-19T06:29:43;5.10;;;4.60;;
2408;SDS011;8463;48.094;7.970;2023-01-19T06:32:10;7.30;;;4.70;;
2408;SDS011;8463;48.094;7.970;2023-01-19T06:34:35;7.47;;;4.00;;
2408;SDS011;8463;48.094;7.970;2023-01-19T06:37:02;6.03;;;4.93;;
2408;SDS011;8463;48.094;7.970;2023-01-19T06:39:28;5.67;;;4.43;;
2408;SDS011;8463;48.094;7.970;2023-01-19T06:41:53;6.13;;;4.60;;
2408;SDS011;8463;48.094;7.970;2023-01-19T06:44:19;5.70;;;4.47;;
2408;SDS011;8463;48.094;7.970;2023-01-19T06:46:50;3.80;;;3.50;;
2408;SDS011;8463;48.094;7.970;2023-01-19T06:49:18;6.27;;;4.80;;
2408;SDS011;8463;48.094;7.970;2023-01-19T06:51:46;8.43;;;6.23;;
2408;SDS011;8463;48.094;7.970;2023-01-19T06:54:14;4.80;;;4.37;;
2408;SDS011;8463;48.094;7.970;2023-01-19T06:56:40;11.10;;;7.17;;
2408;SDS011;8463;48.094;7.970;2023-01-19T06:59:06;9.90;;;6.87;;
2408;SDS011;8463;48.094;7.970;2023-01-19T07:01:32;15.07;;;7.27;;
2408;SDS011;8463;48.094;7.970;2023-01-19T07:03:57;7.87;;;5.40;;
2408;SDS011;8463;48.094;7.970;2023-01-19T07:06:27;8.37;;;5.83;;
2408;SDS011;8463;48.094;7.970;2023-01-19T07:08:53;9.70;;;6.10;;
2408;SDS011;8463;48.094;7.970;2023-01-19T07:11:19;6.93;;;5.50;;
2408;SDS011;8463;48.094;7.970;2023-01-19T07:13:44;11.13;;;5.37;;
2408;SDS011;8463;48.094;7.970;2023-01-19T07:16:15;8.50;;;5.43;;
2408;SDS011;8463;48.094;7.970;2023-01-19T07:18:41;6.03;;;4.50;;
2408;SDS011;8463;48.094;7.970;2023-01-19T07:21:07;5.60;;;4.50;;
2408;SDS011;8463;48.094;7.970;2023-01-19T07:23:33;5.90;;;5.30;;
2408;SDS011;8463;48.094;7.970;2023-01-19T07:26:05;5.23;;;4.73;;
2408;SDS011;8463;48.094;7.970;2023-01-19T07:28:31;5.17;;;4.60;;
2408;SDS011;8463;48.094;7.970;2023-01-19T07:31:00;8.83;;;5.13;;
2408;SDS011;8463;48.094;7.970;2023-01-19T07:33:25;7.87;;;6.27;;
2408;SDS011;8463;48.094;7.970;2023-01-19T07:35:51;9.70;;;4.03;;
2408;SDS011;8463;48.094;7.970;2023-01-19T07:38:18;8.53;;;5.00;;
2408;SDS011;8463;48.094;7.970;2023-01-19T07:40:47;7.60;;;5.17;;
2408;SDS011;8463;48.094;7.970;2023-01-19T07:43:15;5.60;;;5.10;;
2408;SDS011;8463;48.094;7.970;2023-01-19T07:45:41;5.33;;;4.70;;
2408;SDS011;8463;48.094;7.970;2023-01-19T07:48:07;9.87;;;5.67;;
2408;SDS011;8463;48.094;7.970;2023-01-19T07:50:32;8.20;;;5.50;;
2408;SDS011;8463;48.094;7.970;2023-01-19T07:53:03;6.00;;;4.37;;
2408;SDS011;8463;48.094;7.970;2023-01-19T07:55:32;6.73;;;3.80;;
2408;SDS011;8463;48.094;7.970;2023-01-19T07:57:59;4.30;;;3.30;;
2408;SDS011;8463;48.094;7.970;2023-01-19T08:00:31;4.23;;;3.30;;
2408;SDS011;8463;48.094;7.970;2023-01-19T08:02:58;4.17;;;3.40;;
2408;SDS011;8463;48.094;7.970;2023-01-19T08:05:33;4.93;;;3.83;;
2408;SDS011;8463;48.094;7.970;2023-01-19T08:07:59;5.67;;;3.37;;
2408;SDS011;8463;48.094;7.970;2023-01-19T08:10:27;3.40;;;3.07;;
2408;SDS011;8463;48.094;7.970;2023-01-19T08:12:54;7.77;;;3.50;;
2408;SDS011;8463;48.094;7.970;2023-01-19T08:15:20;4.53;;;3.43;;
2408;SDS011;8463;48.094;7.970;2023-01-19T08:18:00;5.47;;;3.23;;
2408;SDS011;8463;48.094;7.970;2023-01-19T08:20:30;6.63;;;4.73;;
2408;SDS011;8463;48.094;7.970;2023-01-19T08:23:02;8.83;;;5.47;;
2408;SDS011;8463;48.094;7.970;2023-01-19T08:25:36;14.57;;;8.13;;
2408;SDS011;8463;48.094;7.970;2023-01-19T08:28:05;8.17;;;6.10;;
2408;SDS011;8463;48.094;7.970;2023-01-19T08:30:31;6.13;;;4.43;;
2408;SDS011;8463;48.094;7.970;2023-01-19T08:33:04;5.27;;;4.10;;
2408;SDS011;8463;48.094;7.970;2023-01-19T08:35:36;4.33;;;3.17;;
2408;SDS011;8463;48.094;7.970;2023-01-19T08:38:07;3.87;;;3.27;;
2408;SDS011;8463;48.094;7.970;2023-01-19T08:40:38;6.23;;;4.73;;
2408;SDS011;8463;48.094;7.970;2023-01-19T08:43:06;6.90;;;5.50;;
2408;SDS011;8463;48.094;7.970;2023-01-19T08:45:37;4.50;;;3.80;;
2408;SDS011;8463;48.094;7.970;2023-01-19T08:48:12;4.63;;;3.70;;
2408;SDS011;8463;48.094;7.970;2023-01-19T08:50:47;6.50;;;3.40;;
2408;SDS011;8463;48.094;7.970;2023-01-19T08:53:14;3.63;;;3.23;;
2408;SDS011;8463;48.094;7.970;2023-01-19T08:55:40;5.20;;;3.67;;
2408;SDS011;8463;48.094;7.970;2023-01-19T08:58:05;5.30;;;3.50;;
2408;SDS011;8463;48.094;7.970;2023-01-19T09:00:35;3.87;;;3.37;;
2408;SDS011;8463;48.094;7.970;2023-01-19T09:03:05;4.83;;;3.43;;
2408;SDS011;8463;48.094;7.970;2023-01-19T09:05:33;4.40;;;4.00;;
2408;SDS011;8463;48.094;7.970;2023-01-19T09:08:06;7.63;;;4.27;;
2408;SDS011;8463;48.094;7.970;2023-01-19T09:10:34;9.27;;;4.77;;
2408;SDS011;8463;48.094;7.970;2023-01-19T09:13:09;6.33;;;4.23;;
2408;SDS011;8463;48.094;7.970;2023-01-19T09:15:40;6.20;;;4.13;;
2408;SDS011;8463;48.094;7.970;2023-01-19T09:18:08;4.77;;;4.27;;
2408;SDS011;8463;48.094;7.970;2023-01-19T09:20:40;4.70;;;4.20;;
2408;SDS011;8463;48.094;7.970;2023-01-19T09:23:08;8.23;;;4.60;;
2408;SDS011;8463;48.094;7.970;2023-01-19T09:25:44;4.90;;;3.40;;
2408;SDS011;8463;48.094;7.970;2023-01-19T09:28:11;9.33;;;4.90;;
2408;SDS011;8463;48.094;7.970;2023-01-19T09:30:42;5.90;;;4.73;;
2408;SDS011;8463;48.094;7.970;2023-01-19T09:33:09;8.67;;;5.90;;
2408;SDS011;8463;48.094;7.970;2023-01-19T09:35:45;9.27;;;6.83;;
2408;SDS011;8463;48.094;7.970;2023-01-19T09:38:18;12.17;;;8.17;;
2408;SDS011;8463;48.094;7.970;2023-01-19T09:40:54;12.43;;;7.07;;
2408;SDS011;8463;48.094;7.970;2023-01-19T09:43:40;5.83;;;5.13;;
2408;SDS011;8463;48.094;7.970;2023-01-19T09:46:18;7.17;;;5.43;;
2408;SDS011;8463;48.094;7.970;2023-01-19T09:48:46;5.13;;;4.20;;
2408;SDS011;8463;48.094;7.970;2023-01-19T09:51:21;8.30;;;6.30;;
2408;SDS011;8463;48.094;7.970;2023-01-19T09:56:43;7.70;;;5.70;;
2408;SDS011;8463;48.094;7.970;2023-01-19T09:59:21;5.40;;;4.60;;
2408;SDS011;8463;48.094;7.970;2023-01-19T10:12:57;6.80;;;5.83;;
2408;SDS011;8463;48.094;7.970;2023-01-19T10:23:59;5.83;;;5.00;;
2408;SDS011;8463;48.094;7.970;2023-01-19T10:26:31;6.23;;;5.63;;
2408;SDS011;8463;48.094;7.970;2023-01-19T10:31:30;9.93;;;5.97;;
2408;SDS011;8463;48.094;7.970;2023-01-19T10:33:57;8.17;;;6.97;;
2408;SDS011;8463;48.094;7.970;2023-01-19T10:36:32;10.43;;;7.33;;
2408;SDS011;8463;48.094;7.970;2023-01-19T10:38:59;7.10;;;6.20;;
2408;SDS011;8463;48.094;7.970;2023-01-19T10:41:45;12.17;;;7.67;;
2408;SDS011;8463;48.094;7.970;2023-01-19T10:44:26;14.40;;;8.00;;
2408;SDS011;8463;48.094;7.970;2023-01-19T10:47:00;9.90;;;6.77;;
2408;SDS011;8463;48.094;7.970;2023-01-19T10:51:56;7.90;;;7.17;;
2408;SDS011;8463;48.094;7.970;2023-01-19T10:54:25;7.17;;;6.47;;
2408;SDS011;8463;48.094;7.970;2023-01-19T10:57:02;6.87;;;6.17;;
2408;SDS011;8463;48.094;7.970;2023-01-19T10:59:45;12.70;;;7.27;;
2408;SDS011;8463;48.094;7.970;2023-01-19T11:02:19;7.00;;;6.37;;
2408;SDS011;8463;48.094;7.970;2023-01-19T11:04:54;6.93;;;5.93;;
2408;SDS011;8463;48.094;7.970;2023-01-19T11:13:04;6.90;;;6.40;;
2408;SDS011;8463;48.094;7.970;2023-01-19T11:18:05;7.90;;;5.50;;
2408;SDS011;8463;48.094;7.970;2023-01-19T11:20:35;6.43;;;4.43;;
2408;SDS011;8463;48.094;7.970;2023-01-19T11:23:51;7.17;;;5.37;;
2408;SDS011;8463;48.094;7.970;2023-01-19T11:26:25;6.97;;;5.73;;
2408;SDS011;8463;48.094;7.970;2023-01-19T11:28:53;7.23;;;5.57;;
2408;SDS011;8463;48.094;7.970;2023-01-19T11:34:02;10.50;;;6.80;;
2408;SDS011;8463;48.094;7.970;2023-01-19T11:36:34;5.53;;;4.77;;
2408;SDS011;8463;48.094;7.970;2023-01-19T11:39:14;5.80;;;5.17;;
2408;SDS011;8463;48.094;7.970;2023-01-19T11:41:50;5.17;;;4.67;;
2408;SDS011;8463;48.094;7.970;2023-01-19T11:44:31;5.30;;;4.00;;
2408;SDS011;8463;48.094;7.970;2023-01-19T11:47:13;5.73;;;4.20;;
2408;SDS011;8463;48.094;7.970;2023-01-19T11:58:14;5.80;;;5.20;;
2408;SDS011;8463;48.094;7.970;2023-01-19T12:00:42;7.90;;;5.50;;
2408;SDS011;8463;48.094;7.970;2023-01-19T12:03:26;10.77;;;6.20;;
2408;SDS011;8463;48.094;7.970;2023-01-19T12:06:21;12.03;;;6.80;;
2408;SDS011;8463;48.094;7.970;2023-01-19T12:11:41;7.93;;;5.20;;
2408;SDS011;8463;48.094;7.970;2023-01-19T12:14:23;7.00;;;4.90;;
2408;SDS011;8463;48.094;7.970;2023-01-19T12:16:59;7.20;;;4.03;;
2408;SDS011;8463;48.094;7.970;2023-01-19T12:19:40;4.93;;;4.13;;
2408;SDS011;8463;48.094;7.970;2023-01-19T12:22:26;6.30;;;4.33;;
2408;SDS011;8463;48.094;7.970;2023-01-19T12:25:40;6.50;;;4.67;;
2408;SDS011;8463;48.094;7.970;2023-01-19T12:28:06;4.10;;;3.50;;
2408;SDS011;8463;48.094;7.970;2023-01-19T12:30:37;4.63;;;4.20;;
2408;SDS011;8463;48.094;7.970;2023-01-19T12:35:59;5.27;;;4.10;;
2408;SDS011;8463;48.094;7.970;2023-01-19T12:46:36;4.83;;;3.50;;
2408;SDS011;8463;48.094;7.970;2023-01-19T12:54:59;9.50;;;4.57;;
2408;SDS011;8463;48.094;7.970;2023-01-19T13:05:50;6.60;;;5.20;;
2408;SDS011;8463;48.094;7.970;2023-01-19T13:08:54;6.40;;;5.17;;
2408;SDS011;8463;48.094;7.970;2023-01-19T13:11:17;5.73;;;4.20;;
2408;SDS011;8463;48.094;7.970;2023-01-19T13:18:54;6.57;;;4.97;;
2408;SDS011;8463;48.094;7.970;2023-01-19T13:21:35;4.67;;;3.87;;
2408;SDS011;8463;48.094;7.970;2023-01-19T13:24:22;12.87;;;9.27;;
2408;SDS011;8463;48.094;7.970;2023-01-19T13:26:54;8.60;;;6.57;;
2408;SDS011;8463;48.094;7.970;2023-01-19T13:32:09;7.87;;;5.70;;
2408;SDS011;8463;48.094;7.970;2023-01-19T13:34:54;6.70;;;4.80;;
2408;SDS011;8463;48.094;7.970;2023-01-19T13:37:26;7.33;;;4.60;;
2408;SDS011;8463;48.094;7.970;2023-01-19T13:40:00;9.03;;;6.10;;
2408;SDS011;8463;48.094;7.970;2023-01-19T13:42:28;6.27;;;4.87;;
2408;SDS011;8463;48.094;7.970;2023-01-19T13:47:50;9.27;;;7.00;;
2408;SDS011;8463;48.094;7.970;2023-01-19T13:50:19;7.67;;;5.43;;
2408;SDS011;8463;48.094;7.970;2023-01-19T13:52:54;7.47;;;4.80;;
2408;SDS011;8463;48.094;7.970;2023-01-19T13:55:22;11.53;;;5.53;;
2408;SDS011;8463;48.094;7.970;2023-01-19T13:57:53;10.40;;;6.20;;
2408;SDS011;8463;48.094;7.970;2023-01-19T14:00:23;8.17;;;6.47;;
2408;SDS011;8463;48.094;7.970;2023-01-19T14:05:42;8.37;;;5.13;;
2408;SDS011;8463;48.094;7.970;2023-01-19T14:13:20;9.43;;;5.33;;
2408;SDS011;8463;48.094;7.970;2023-01-19T14:15:54;8.03;;;4.60;;
2408;SDS011;8463;48.094;7.970;2023-01-19T14:21:11;6.70;;;4.87;;
2408;SDS011;8463;48.094;7.970;2023-01-19T14:42:38;6.40;;;4.17;;
2408;SDS011;8463;48.094;7.970;2023-01-19T14:47:45;5.90;;;3.90;;
2408;SDS011;8463;48.094;7.970;2023-01-19T14:50:26;3.83;;;3.40;;
2408;SDS011;8463;48.094;7.970;2023-01-19T14:52:56;4.43;;;4.00;;
2408;SDS011;8463;48.094;7.970;2023-01-19T14:58:24;8.53;;;3.83;;
2408;SDS011;8463;48.094;7.970;2023-01-19T15:00:57;5.87;;;4.10;;
2408;SDS011;8463;48.094;7.970;2023-01-19T15:03:23;6.67;;;3.87;;
2408;SDS011;8463;48.094;7.970;2023-01-19T15:05:53;7.50;;;4.40;;
2408;SDS011;8463;48.094;7.970;2023-01-19T15:08:25;7.60;;;4.80;;
2408;SDS011;8463;48.094;7.970;2023-01-19T15:10:57;5.80;;;4.83;;
2408;SDS011;8463;48.094;7.970;2023-01-19T15:13:30;6.87;;;5.20;;
2408;SDS011;8463;48.094;7.970;2023-01-19T15:15:56;7.20;;;4.37;;
2408;SDS011;8463;48.094;7.970;2023-01-19T15:18:23;6.87;;;4.60;;
2408;SDS011;8463;48.094;7.970;2023-01-19T15:20:51;7.27;;;5.70;;
2408;SDS011;8463;48.094;7.970;2023-01-19T15:23:21;10.00;;;6.73;;
2408;SDS011;8463;48.094;7.970;2023-01-19T15:25:50;7.23;;;5.70;;
2408;SDS011;8463;48.094;7.970;2023-01-19T15:28:16;7.80;;;4.60;;
2408;SDS011;8463;48.094;7.970;2023-01-19T15:30:49;6.60;;;4.90;;
2408;SDS011;8463;48.094;7.970;2023-01-19T15:33:18;5.77;;;4.07;;
2408;SDS011;8463;48.094;7.970;2023-01-19T15:35:49;6.83;;;4.43;;
2408;SDS011;8463;48.094;7.970;2023-01-19T15:38:15;4.37;;;4.00;;
2408;SDS011;8463;48.094;7.970;2023-01-19T15:40:46;6.63;;;4.70;;
2408;SDS011;8463;48.094;7.970;2023-01-19T15:43:12;4.30;;;3.90;;
2408;SDS011;8463;48.094;7.970;2023-01-19T15:45:42;7.30;;;5.30;;
2408;SDS011;8463;48.094;7.970;2023-01-19T15:48:17;4.67;;;4.17;;
2408;SDS011;8463;48.094;7.970;2023-01-19T15:50:47;6.13;;;5.57;;
2408;SDS011;8463;48.094;7.970;2023-01-19T15:53:16;4.90;;;4.40;;
2408;SDS011;8463;48.094;7.970;2023-01-19T15:55:48;5.30;;;4.20;;
2408;SDS011;8463;48.094;7.970;2023-01-19T15:58:16;5.23;;;4.60;;
2408;SDS011;8463;48.094;7.970;2023-01-19T16:00:45;6.57;;;5.57;;
2408;SDS011;8463;48.094;7.970;2023-01-19T16:03:21;5.63;;;4.13;;
2408;SDS011;8463;48.094;7.970;2023-01-19T16:05:47;8.97;;;5.47;;
2408;SDS011;8463;48.094;7.970;2023-01-19T16:08:12;6.13;;;4.70;;
2408;SDS011;8463;48.094;7.970;2023-01-19T16:10:39;4.57;;;3.83;;
2408;SDS011;8463;48.094;7.970;2023-01-19T16:13:09;7.00;;;4.73;;
2408;SDS011;8463;48.094;7.970;2023-01-19T16:15:36;6.83;;;6.13;;
2408;SDS011;8463;48.094;7.970;2023-01-19T16:18:02;5.10;;;4.57;;
2408;SDS011;8463;48.094;7.970;2023-01-19T16:20:28;7.90;;;5.67;;
2408;SDS011;8463;48.094;7.970;2023-01-19T16:22:57;6.23;;;5.40;;
2408;SDS011;8463;48.094;7.970;2023-01-19T16:25:22;6.67;;;5.03;;
2408;SDS011;8463;48.094;7.970;2023-01-19T16:27:49;19.27;;;14.00;;
2408;SDS011;8463;48.094;7.970;2023-01-19T16:30:15;16.80;;;11.70;;
2408;SDS011;8463;48.094;7.970;2023-01-19T16:32:45;11.73;;;8.30;;
2408;SDS011;8463;48.094;7.970;2023-01-19T16:35:11;9.87;;;5.97;;
2408;SDS011;8463;48.094;7.970;2023-01-19T16:37:37;10.10;;;9.00;;
2408;SDS011;8463;48.094;7.970;2023-01-19T16:40:03;12.70;;;10.00;;
2408;SDS011;8463;48.094;7.970;2023-01-19T16:42:33;14.87;;;11.33;;
2408;SDS011;8463;48.094;7.970;2023-01-19T16:44:59;17.60;;;11.20;;
2408;SDS011;8463;48.094;7.970;2023-01-19T16:47:24;15.23;;;9.67;;
2408;SDS011;8463;48.094;7.970;2023-01-19T16:49:50;16.67;;;10.63;;
2408;SDS011;8463;48.094;7.970;2023-01-19T16:52:16;14.03;;;9.57;;
2408;SDS011;8463;48.094;7.970;2023-01-19T16:54:47;10.50;;;8.33;;
2408;SDS011;8463;48.094;7.970;2023-01-19T16:57:13;9.03;;;7.23;;
2408;SDS011;8463;48.094;7.970;2023-01-19T16:59:39;7.20;;;5.20;;
2408;SDS011;8463;48.094;7.970;2023-01-19T17:02:05;6.07;;;5.40;;
2408;SDS011;8463;48.094;7.970;2023-01-19T17:04:31;7.00;;;5.63;;
2408;SDS011;8463;48.094;7.970;2023-01-19T17:06:57;9.63;;;4.93;;
2408;SDS011;8463;48.094;7.970;2023-01-19T17:09:23;14.30;;;8.77;;
2408;SDS011;8463;48.094;7.970;2023-01-19T17:11:48;14.83;;;9.30;;
2408;SDS011;8463;48.094;7.970;2023-01-19T17:14:16;20.63;;;12.53;;
2408;SDS011;8463;48.094;7.970;2023-01-19T17:16:48;21.07;;;11.73;;
2408;SDS011;8463;48.094;7.970;2023-01-19T17:19:15;14.13;;;9.23;;
2408;SDS011;8463;48.094;7.970;2023-01-19T17:21:48;12.37;;;7.97;;
2408;SDS011;8463;48.094;7.970;2023-01-19T17:24:14;10.90;;;8.60;;
2408;SDS011;8463;48.094;7.970;2023-01-19T17:26:41;8.43;;;6.80;;
2408;SDS011;8463;48.094;7.970;2023-01-19T17:29:07;10.43;;;7.20;;
2408;SDS011;8463;48.094;7.970;2023-01-19T17:31:34;6.87;;;6.20;;
2408;SDS011;8463;48.094;7.970;2023-01-19T17:34:06;8.87;;;6.70;;
2408;SDS011;8463;48.094;7.970;2023-01-19T17:36:33;8.73;;;7.23;;
2408;SDS011;8463;48.094;7.970;2023-01-19T17:39:06;10.80;;;8.30;;
2408;SDS011;8463;48.094;7.970;2023-01-19T17:41:38;8.33;;;7.53;;
2408;SDS011;8463;48.094;7.970;2023-01-19T17:44:04;8.23;;;7.20;;
2408;SDS011;8463;48.094;7.970;2023-01-19T17:46:31;10.83;;;7.87;;